Airfield :
LOGIN :

Register | Disclaimer

   EN    FR    IT 

 










Legend :    VFR   Marginal VFR   IFR   Intensive IFR   Very Intensive IFR
Visi :
Ceiling :
>= 8 km
>= 3000ft
5 to 8 km
1000 to 3000 ft
1500m to 5 km
500 to 1000 ft
800 to 1500m
200 to 500 ft
< 800m
< 200 ft
Symbols :   Thunderstorms  Fog  Heavy snow  Heavy precipitations  Wind > 20 kt
SIGMETs :     Misc.  Thunderstorms  Icing  Turbulence  Mountain Waves  Volcanic Ashes







- Airport Elevation : 1079 ft


ETIK - Illesheim Air Base

CURRENT METAR :
  • 152256Z AUTO 00000KT 9999 CLR M02/M02 A3045 RMK AO2 SLP330 T10201020 401431060 $

EXPIRED METARs :
  • 152156Z AUTO 00000KT 9999 CLR M02/M02 A3045 RMK AO2 SLP333 T10191019 $
  • 152056Z AUTO 00000KT 9999 CLR 00/00 A3045 RMK AO2 SLP333 T00031001 55007 $

TAF AMD TAF ETIK
Valid from the 15 at 18:00 until the 16 at 20:00 UTC


151823Z 1518/1620 VRB06KT 9999 SKC QNH3038INS TX15/1615Z TNM02/1605Z LAST NO AMDS AFT 1518 NEXT 1822
No reported NOTAMs for that airfield.



MET'MAP, your aeronautical weather chart ! - Copyright ORBIFLY December 2007 - Disclaimer

ORBIFLY MET'MAP TEAM :

Programming & Development : Alexandra Zaïnal
Concept & Development : Baudouin d'Aumeries
Co-Development & Prog : Marc-Olivier Méhu
Technical & hardware support : Manuel Goepfert

Contact : metmap@orbifly.com




SOURCES & CREDITS :

   NOAA